createdAt,value
2023-05-06T00:09:30.952Z,7.10
2023-05-06T00:24:52.209Z,9.23
2023-05-06T00:40:14.286Z,6.27
2023-05-06T00:55:35.408Z,7.97
2023-05-06T01:11:11.118Z,3.93
2023-05-06T01:26:32.242Z,6.27
2023-05-06T01:41:54.873Z,10.70
2023-05-06T01:57:16.301Z,4.27
2023-05-06T02:12:37.574Z,8.57
2023-05-06T02:27:58.906Z,5.33
2023-05-06T02:43:23.656Z,5.30
2023-05-06T02:58:44.946Z,6.03
2023-05-06T03:14:06.133Z,5.90
2023-05-06T03:29:27.791Z,17.07
2023-05-06T03:44:48.915Z,5.83
2023-05-06T04:00:10.729Z,4.47
2023-05-06T04:15:34.629Z,7.23
2023-05-06T04:30:55.869Z,5.20
2023-05-06T04:46:17.503Z,9.50
2023-05-06T05:01:38.748Z,4.93
2023-05-06T05:17:00.015Z,4.73
2023-05-06T05:32:22.081Z,5.47
2023-05-06T05:47:43.830Z,4.53
2023-05-06T06:03:05.254Z,7.70
2023-05-06T06:18:26.509Z,5.97
2023-05-06T06:33:48.043Z,5.40
2023-05-06T06:49:09.400Z,7.10
2023-05-06T07:04:31.013Z,8.13
2023-05-06T07:19:52.111Z,5.30
2023-05-06T07:35:13.621Z,5.80
2023-05-06T07:50:35.068Z,5.07
2023-05-06T08:05:56.636Z,3.37
2023-05-06T08:21:17.934Z,6.53
2023-05-06T08:36:39.046Z,3.47
2023-05-06T08:52:00.656Z,4.87
2023-05-06T09:07:22.444Z,5.60
2023-05-06T09:22:44.054Z,4.60
2023-05-06T09:38:07.062Z,5.80
2023-05-06T09:53:29.194Z,5.70
2023-05-06T10:08:50.530Z,4.17
2023-05-06T10:24:14.567Z,9.03
2023-05-06T10:39:36.444Z,5.53
2023-05-06T10:54:57.780Z,10.97
2023-05-06T11:10:33.098Z,9.20
2023-05-06T11:25:55.686Z,4.97
2023-05-06T11:41:17.455Z,7.20
2023-05-06T11:56:48.567Z,12.70
2023-05-06T12:12:10.029Z,9.03
2023-05-06T12:27:34.999Z,15.73
2023-05-06T12:42:56.565Z,9.03
2023-05-06T12:58:18.104Z,5.83
2023-05-06T13:13:39.227Z,3.80
2023-05-06T13:29:00.911Z,5.73
2023-05-06T13:44:22.601Z,8.27
2023-05-06T13:59:43.504Z,25.23
2023-05-06T14:15:08.744Z,5.10
2023-05-06T14:30:31.185Z,35.77
2023-05-06T14:45:52.272Z,6.90
2023-05-06T15:01:19.329Z,16.03
2023-05-06T15:16:40.535Z,9.37
2023-05-06T15:32:02.070Z,12.33
2023-05-06T15:47:23.459Z,8.67
2023-05-06T16:02:44.689Z,74.70
2023-05-06T16:18:06.050Z,73.23
2023-05-06T16:33:27.869Z,66.17
2023-05-06T16:48:48.985Z,45.03
2023-05-06T17:04:10.529Z,13.47
2023-05-06T17:19:31.927Z,12.07
2023-05-06T17:34:53.245Z,11.20
2023-05-06T17:50:14.664Z,11.13
2023-05-06T18:05:36.012Z,8.13
2023-05-06T18:20:57.052Z,12.13
2023-05-06T18:36:18.736Z,9.87
2023-05-06T18:51:41.481Z,7.57
2023-05-06T19:07:02.845Z,24.73
2023-05-06T19:22:24.201Z,12.47
2023-05-06T19:37:45.702Z,7.40
2023-05-06T19:53:06.889Z,7.93
2023-05-06T20:08:28.144Z,5.47
2023-05-06T20:23:49.326Z,6.57
2023-05-06T20:39:10.673Z,10.17
2023-05-06T20:54:31.693Z,9.63
2023-05-06T21:09:53.184Z,5.90
2023-05-06T21:25:14.576Z,9.43
2023-05-06T21:40:35.823Z,7.87
2023-05-06T21:55:57.756Z,8.53
2023-05-06T22:11:19.145Z,8.20
2023-05-06T22:26:40.922Z,9.97
2023-05-06T22:42:02.349Z,4.37
2023-05-06T22:57:25.621Z,8.27
2023-05-06T23:12:47.002Z,5.40
2023-05-06T23:28:08.197Z,5.93
2023-05-06T23:43:29.629Z,7.30
2023-05-06T23:58:51.083Z,3.43
